| time (UTC) | temp C | wind direction | speed KPH | gust KPH | rain 1hr cm | rain 24hr cm | rain mn cm | humidity % | barometer mb |
| 20260905093013 | 10 | 95 | 11.3 | 17.7 | 0.00 | 0.00 | 0.00 | 74 | 1017.5 |
| 20260905091515 | 10 | 123 | 3.2 | 8.0 | 0.00 | 0.00 | 0.00 | 74 | 1018.2 |
| 20260905090009 | 10 | 157 | 8.0 | 9.7 | 0.00 | 0.00 | 0.00 | 74 | 1018.0 |
| 20260905084509 | 11 | 161 | 3.2 | 4.8 | 0.00 | 0.00 | 0.00 | 70 | 1017.2 |
| 20260905083020 | 12 | 132 | 1.6 | 8.0 | 0.00 | 0.00 | 0.00 | 66 | 1017.5 |
| 20260905081515 | 12 | 313 | 0.0 | 6.4 | 0.00 | 0.00 | 0.00 | 63 | 1016.8 |
| 20260905080019 | 12 | 282 | 3.2 | 14.5 | 0.00 | 0.00 | 0.00 | 60 | 1016.3 |
| 20260905074513 | 12 | 72 | 0.0 | 3.2 | 0.00 | 0.00 | 0.00 | 57 | 1016.0 |
| 20260905073010 | 12 | 192 | 0.0 | 14.5 | 0.00 | 0.00 | 0.00 | 55 | 1015.7 |
| 20260905071519 | 12 | 188 | 6.4 | 12.9 | 0.00 | 0.00 | 0.00 | 52 | 1015.7 |
| 20260905070023 | 12 | 158 | 12.9 | 17.7 | 0.00 | 0.00 | 0.00 | 50 | 1015.7 |
| 20260905064521 | 15 | 133 | 3.2 | 4.8 | 0.00 | 0.00 | 0.00 | 44 | 1015.6 |
| 20260905063007 | 15 | 331 | 1.6 | 6.4 | 0.00 | 0.00 | 0.00 | 43 | 1015.3 |
| 20260905061517 | 15 | 62 | 1.6 | 6.4 | 0.00 | 0.00 | 0.00 | 45 | 1015.4 |
| 20260905060023 | 15 | 80 | 1.6 | 4.8 | 0.00 | 0.00 | 0.00 | 43 | 1015.3 |
| 20260905054531 | 15 | 92 | 3.2 | 4.8 | 0.00 | 0.00 | 0.00 | 43 | 1015.0 |
| 20260905053028 | 18 | 9 | 0.0 | 12.9 | 0.00 | 0.00 | 0.00 | 36 | 1015.0 |
| 20260905051514 | 18 | 105 | 3.2 | 6.4 | 0.00 | 0.00 | 0.00 | 33 | 1014.9 |
| 20260905050022 | 18 | 110 | 4.8 | 6.4 | 0.00 | 0.00 | 0.00 | 34 | 1015.0 |
| 20260905044524 | 17 | 71 | 3.2 | 4.8 | 0.00 | 0.00 | 0.00 | 34 | 1015.3 |
| 20260905043004 | 18 | 297 | 1.6 | 11.3 | 0.00 | 0.00 | 0.00 | 34 | 1015.4 |
| 20260905041510 | 18 | 109 | 8.0 | 11.3 | 0.00 | 0.00 | 0.00 | 33 | 1015.3 |
| 20260905040027 | 18 | 107 | 8.0 | 9.7 | 0.00 | 0.00 | 0.00 | 33 | 1015.4 |
| 20260905034502 | 18 | 103 | 3.2 | 6.4 | 0.00 | 0.00 | 0.00 | 34 | 1015.6 |
| 20260905033005 | 19 | 79 | 3.2 | 6.4 | 0.00 | 0.00 | 0.00 | 33 | 1015.6 |
| 20260905031509 | 18 | 91 | 3.2 | 4.8 | 0.00 | 0.00 | 0.00 | 33 | 1015.6 |
| 20260905030012 | 18 | 78 | 3.2 | 4.8 | 0.00 | 0.00 | 0.00 | 35 | 1015.6 |
| 20260905024517 | 18 | 57 | 3.2 | 4.8 | 0.00 | 0.00 | 0.00 | 34 | 1015.4 |
| 20260905023010 | 18 | 96 | 0.0 | 3.2 | 0.00 | 0.00 | 0.00 | 36 | 1015.2 |
| 20260905021506 | 18 | 98 | 1.6 | 3.2 | 0.00 | 0.00 | 0.00 | 37 | 1015.0 |
| 20260905020018 | 21 | 107 | 0.0 | 1.6 | 0.00 | 0.00 | 0.00 | 35 | 1014.7 |
| 20260905014518 | 22 | 53 | 0.0 | 3.2 | 0.00 | 0.00 | 0.00 | 29 | 1014.7 |
| 20260905013024 | 23 | 348 | 0.0 | 3.2 | 0.00 | 0.00 | 0.00 | 29 | 1014.5 |
| 20260905011509 | 23 | 74 | 0.0 | 0.0 | 0.00 | 0.00 | 0.00 | 32 | 1014.3 |
| 20260905010010 | 22 | 72 | 0.0 | 3.2 | 0.00 | 0.00 | 0.00 | 30 | 1014.3 |
| 20260905004516 | 23 | 360 | 0.0 | 3.2 | 0.00 | 0.00 | 0.00 | 28 | 1014.2 |
| 20260905003019 | 23 | 298 | 1.6 | 4.8 | 0.00 | 0.00 | 0.00 | 29 | 1014.2 |
| 20260905001527 | 23 | 223 | 3.2 | 11.3 | 0.00 | 0.00 | 0.00 | 29 | 1014.0 |
| 20260905000007 | 25 | 291 | 1.6 | 6.4 | 0.00 | 0.00 | 0.00 | 27 | 1013.9 |
| 20260904234513 | 24 | 300 | 3.2 | 4.8 | 0.00 | 0.00 | 0.00 | 31 | 1013.9 |
| 20260904233019 | 25 | 207 | 1.6 | 11.3 | 0.00 | 0.00 | 0.00 | 26 | 1014.0 |
| 20260904231527 | 24 | 289 | 1.6 | 6.4 | 0.00 | 0.00 | 0.00 | 26 | 1014.0 |
| 20260904230057 | 25 | 331 | 3.2 | 9.7 | 0.00 | 0.00 | 0.00 | 28 | 1013.7 |
| 20260904224520 | 25 | 227 | 3.2 | 14.5 | 0.00 | 0.00 | 0.00 | 26 | 1013.7 |
| 20260904223015 | 25 | 252 | 1.6 | 6.4 | 0.00 | 0.00 | 0.00 | 27 | 1013.7 |
| 20260904221524 | 24 | 317 | 6.4 | 14.5 | 0.00 | 0.00 | 0.00 | 28 | 1013.7 |
| 20260904220029 | 23 | 299 | 3.2 | 12.9 | 0.00 | 0.00 | 0.00 | 31 | 1013.7 |
| 20260904214530 | 23 | 313 | 3.2 | 12.9 | 0.00 | 0.00 | 0.00 | 30 | 1013.5 |
| 20260904213016 | 24 | 318 | 3.2 | 12.9 | 0.00 | 0.00 | 0.00 | 30 | 1013.3 |
| 20260904211521 | 23 | 304 | 6.4 | 16.1 | 0.00 | 0.00 | 0.00 | 30 | 1013.3 |
| 20260904210028 | 23 | 53 | 3.2 | 11.3 | 0.00 | 0.00 | 0.00 | 29 | 1013.3 |
| 20260904204532 | 23 | 338 | 3.2 | 12.9 | 0.00 | 0.00 | 0.00 | 29 | 1013.2 |
| 20260904203012 | 24 | 318 | 6.4 | 9.7 | 0.00 | 0.00 | 0.00 | 27 | 1013.1 |
| 20260904201519 | 24 | 333 | 4.8 | 8.0 | 0.00 | 0.00 | 0.00 | 28 | 1013.2 |
| 20260904200025 | 23 | 335 | 3.2 | 6.4 | 0.00 | 0.00 | 0.00 | 30 | 1013.1 |
| 20260904194529 | 23 | 308 | 4.8 | 12.9 | 0.00 | 0.00 | 0.00 | 29 | 1013.0 |
| 20260904193025 | 23 | 323 | 3.2 | 11.3 | 0.00 | 0.00 | 0.00 | 29 | 1013.0 |
| 20260904191519 | 23 | 309 | 1.6 | 11.3 | 0.00 | 0.00 | 0.00 | 28 | 1013.0 |
| 20260904190003 | 23 | 275 | 6.4 | 16.1 | 0.00 | 0.00 | 0.00 | 28 | 1013.0 |
| 20260904184505 | 22 | 352 | 4.8 | 12.9 | 0.00 | 0.00 | 0.00 | 29 | 1013.1 |
| 20260904183009 | 22 | 26 | 0.0 | 12.9 | 0.00 | 0.00 | 0.00 | 28 | 1013.1 |
| 20260904181514 | 22 | 324 | 11.3 | 20.9 | 0.00 | 0.00 | 0.00 | 28 | 1013.0 |
| 20260904180018 | 23 | 342 | 4.8 | 14.5 | 0.00 | 0.00 | 0.00 | 29 | 1012.8 |
| 20260904174505 | 22 | 17 | 3.2 | 17.7 | 0.00 | 0.00 | 0.00 | 32 | 1012.8 |
| 20260904173008 | 22 | 323 | 8.0 | 16.1 | 0.00 | 0.00 | 0.00 | 31 | 1012.9 |
| 20260904171511 | 22 | 281 | 8.0 | 19.3 | 0.00 | 0.00 | 0.00 | 31 | 1012.7 |
| 20260904170016 | 23 | 349 | 9.7 | 17.7 | 0.00 | 0.00 | 0.00 | 28 | 1012.3 |
| 20260904164523 | 23 | 5 | 3.2 | 14.5 | 0.00 | 0.00 | 0.00 | 28 | 1012.0 |
| 20260904163006 | 22 | 350 | 1.6 | 11.3 | 0.00 | 0.00 | 0.00 | 28 | 1012.0 |
| 20260904161508 | 21 | 340 | 3.2 | 11.3 | 0.00 | 0.00 | 0.00 | 30 | 1011.7 |
| 20260904160016 | 21 | 252 | 6.4 | 11.3 | 0.00 | 0.00 | 0.00 | 29 | 1011.5 |
| 20260904154519 | 22 | 223 | 16.1 | 32.2 | 0.00 | 0.00 | 0.00 | 24 | 1011.5 |
| 20260904153033 | 23 | 215 | 17.7 | 25.7 | 0.00 | 0.00 | 0.00 | 24 | 1011.2 |
| 20260904151508 | 23 | 184 | 4.8 | 16.1 | 0.00 | 0.00 | 0.00 | 23 | 1011.0 |
| 20260904150023 | 23 | 171 | 14.5 | 27.4 | 0.00 | 0.00 | 0.00 | 20 | 1010.9 |
| 20260904144516 | 23 | 142 | 9.7 | 19.3 | 0.00 | 0.00 | 0.00 | 23 | 1010.6 |
| 20260904143023 | 22 | 124 | 16.1 | 30.6 | 0.00 | 0.00 | 0.00 | 22 | 1010.5 |
| 20260904141526 | 22 | 155 | 12.9 | 20.9 | 0.00 | 0.00 | 0.00 | 23 | 1010.3 |
| 20260904140011 | 22 | 146 | 16.1 | 27.4 | 0.00 | 0.00 | 0.00 | 21 | 1010.0 |
| 20260904134521 | 22 | 143 | 19.3 | 32.2 | 0.00 | 0.00 | 0.00 | 22 | 1009.6 |
| 20260904133021 | 22 | 159 | 19.3 | 30.6 | 0.00 | 0.00 | 0.00 | 21 | 1009.4 |
| 20260904131526 | 22 | 128 | 24.1 | 33.8 | 0.00 | 0.00 | 0.00 | 22 | 1009.2 |
| 20260904130044 | 22 | 148 | 24.1 | 33.8 | 0.00 | 0.00 | 0.00 | 22 | 1009.2 |
| 20260904124510 | 22 | 124 | 25.7 | 38.6 | 0.00 | 0.00 | 0.00 | 22 | 1008.9 |
| 20260904123024 | 21 | 144 | 22.5 | 38.6 | 0.00 | 0.00 | 0.00 | 23 | 1008.4 |
| 20260904121524 | 21 | 123 | 17.7 | 25.7 | 0.00 | 0.00 | 0.00 | 24 | 1008.4 |
| 20260904120036 | 22 | 140 | 22.5 | 37.0 | 0.00 | 0.00 | 0.00 | 22 | 1008.4 |
| 20260904114530 | 22 | 148 | 29.0 | 48.3 | 0.00 | 0.00 | 0.00 | 21 | 1008.1 |
| 20260904113018 | 22 | 125 | 32.2 | 48.3 | 0.00 | 0.00 | 0.00 | 21 | 1007.9 |
| 20260904111524 | 21 | 119 | 20.9 | 41.8 | 0.00 | 0.00 | 0.00 | 23 | 1007.8 |
| 20260904110030 | 21 | 90 | 19.3 | 32.2 | 0.00 | 0.00 | 0.00 | 26 | 1008.1 |
| 20260904104530 | 21 | 98 | 19.3 | 33.8 | 0.00 | 0.00 | 0.00 | 25 | 1008.0 |
| 20260904103015 | 21 | 82 | 19.3 | 29.0 | 0.00 | 0.00 | 0.00 | 25 | 1008.2 |
| 20260904101505 | 21 | 100 | 14.5 | 25.7 | 0.00 | 0.00 | 0.00 | 25 | 1008.3 |
| 20260904100004 | 21 | 101 | 17.7 | 27.4 | 0.00 | 0.00 | 0.00 | 24 | 1008.4 |
| 20260904094509 | 21 | 98 | 16.1 | 30.6 | 0.00 | 0.00 | 0.00 | 24 | 1008.3 |